Map

Track Data

SID SEASON NUMBER BASIN SUBBASIN NAME ISO_TIME NATURE LAT LON WMO_WIND WMO_PRES WMO_AGENCY TRACK_TYPE DIST2LAND LANDFALL IFLAG USA_AGENCY USA_ATCF_ID USA_LAT USA_LON USA_RECORD USA_STATUS USA_WIND USA_PRES USA_SSHS USA_R34_NE USA_R34_SE USA_R34_SW USA_R34_NW USA_R50_NE USA_R50_SE USA_R50_SW USA_R50_NW USA_R64_NE USA_R64_SE USA_R64_SW USA_R64_NW USA_POCI USA_ROCI USA_RMW USA_EYE TOKYO_LAT TOKYO_LON TOKYO_GRADE TOKYO_WIND TOKYO_PRES TOKYO_R50_DIR TOKYO_R50_LONG TOKYO_R50_SHORT TOKYO_R30_DIR TOKYO_R30_LONG TOKYO_R30_SHORT TOKYO_LAND CMA_LAT CMA_LON CMA_CAT CMA_WIND CMA_PRES HKO_LAT HKO_LON HKO_CAT HKO_WIND HKO_PRES NEWDELHI_LAT NEWDELHI_LON NEWDELHI_GRADE NEWDELHI_WIND NEWDELHI_PRES NEWDELHI_CI NEWDELHI_DP NEWDELHI_POCI REUNION_LAT REUNION_LON REUNION_TYPE REUNION_WIND REUNION_PRES REUNION_TNUM REUNION_CI REUNION_RMW REUNION_R34_NE REUNION_R34_SE REUNION_R34_SW REUNION_R34_NW REUNION_R50_NE REUNION_R50_SE REUNION_R50_SW REUNION_R50_NW REUNION_R64_NE REUNION_R64_SE REUNION_R64_SW REUNION_R64_NW BOM_LAT BOM_LON BOM_TYPE BOM_WIND BOM_PRES BOM_TNUM BOM_CI BOM_RMW BOM_R34_NE BOM_R34_SE BOM_R34_SW BOM_R34_NW BOM_R50_NE BOM_R50_SE BOM_R50_SW BOM_R50_NW BOM_R64_NE BOM_R64_SE BOM_R64_SW BOM_R64_NW BOM_ROCI BOM_POCI BOM_EYE BOM_POS_METHOD BOM_PRES_METHOD NADI_LAT NADI_LON NADI_CAT NADI_WIND NADI_PRES WELLINGTON_LAT WELLINGTON_LON WELLINGTON_WIND WELLINGTON_PRES DS824_LAT DS824_LON DS824_STAGE DS824_WIND DS824_PRES TD9636_LAT TD9636_LON TD9636_STAGE TD9636_WIND TD9636_PRES TD9635_LAT TD9635_LON TD9635_WIND TD9635_PRES TD9635_ROCI NEUMANN_LAT NEUMANN_LON NEUMANN_CLASS NEUMANN_WIND NEUMANN_PRES MLC_LAT MLC_LON MLC_CLASS MLC_WIND MLC_PRES USA_GUST BOM_GUST BOM_GUST_PER REUNION_GUST REUNION_GUST_PER USA_SEAHGT USA_SEARAD_NE USA_SEARAD_SE USA_SEARAD_SW USA_SEARAD_NW STORM_SPEED STORM_DIR
1960078S20037 1960 14 SI MM NOT_NAMED 1960-03-18 06:00:00 NR -20.4000 37.4000 reunion main 203 200 _____O________ -1 -20.4000 37.4000 99 9.90000 3 50
1960078S20037 1960 14 SI MM NOT_NAMED 1960-03-18 09:00:00 NR -20.2889 37.5428 main 200 199 _____P________ -1 -20.2889 37.5428 99 3 50
1960078S20037 1960 14 SI MM NOT_NAMED 1960-03-18 12:00:00 NR -20.1788 37.6837 main 206 198 _____P________ -1 -20.1788 37.6837 99 3 50
1960078S20037 1960 14 SI MM NOT_NAMED 1960-03-18 15:00:00 NR -20.0708 37.8212 main 206 206 _____P________ -1 -20.0708 37.8212 99 3 50
1960078S20037 1960 14 SI MM NOT_NAMED 1960-03-18 18:00:00 NR -19.9659 37.9536 main 216 210 _____P________ -1 -19.9659 37.9536 99 3 50
1960078S20037 1960 14 SI MM NOT_NAMED 1960-03-18 21:00:00 NR -19.8653 38.0793 main 219 214 _____P________ -1 -19.8653 38.0793 99 3 49
1960078S20037 1960 14 SI MM NOT_NAMED 1960-03-19 00:00:00 NR -19.7700 38.1967 main 223 216 _____P________ -1 -19.7700 38.1967 99 3 49
1960078S20037 1960 14 SI MM NOT_NAMED 1960-03-19 03:00:00 NR -19.6812 38.3041 main 223 214 _____P________ -1 -19.6812 38.3041 99 3 48
1960078S20037 1960 14 SI MM NOT_NAMED 1960-03-19 06:00:00 NR -19.6000 38.4000 reunion main 222 222 _____O________ -1 -19.6000 38.4000 99 9.90000 2 47
1960078S20037 1960 14 SI MM NOT_NAMED 1960-03-19 09:00:00 NR -19.5270 38.4840 main 222 222 _____P________ -1 -19.5270 38.4840 99 2 47
1960078S20037 1960 14 SI MM NOT_NAMED 1960-03-19 12:00:00 NR -19.4608 38.5609 main 229 222 _____P________ -1 -19.4608 38.5609 99 2 48
1960078S20037 1960 14 SI MM NOT_NAMED 1960-03-19 15:00:00 NR -19.3995 38.6364 main 222 222 _____P________ -1 -19.3995 38.6364 99 2 51
1960078S20037 1960 14 SI MM NOT_NAMED 1960-03-19 18:00:00 NR -19.3413 38.7165 main 223 223 _____P________ -1 -19.3413 38.7165 99 2 55
1960078S20037 1960 14 SI MM NOT_NAMED 1960-03-19 21:00:00 NR -19.2842 38.8071 main 232 228 _____P________ -1 -19.2842 38.8071 99 2 58
1960078S20037 1960 14 SI MM NOT_NAMED 1960-03-20 00:00:00 NR -19.2262 38.9139 main 228 228 _____P________ -1 -19.2262 38.9139 99 3 62
1960078S20037 1960 14 SI MM NOT_NAMED 1960-03-20 03:00:00 NR -19.1655 39.0430 main 232 227 _____P________ -1 -19.1655 39.0430 99 3 65
1960078S20037 1960 14 SI MM NOT_NAMED 1960-03-20 06:00:00 NR -19.1000 39.2000 reunion main 229 221 _____O________ -1 -19.1000 39.2000 99 9.90000 4 63
1960078S20037 1960 14 SI MM NOT_NAMED 1960-03-20 09:00:00 NR -18.9970 39.3952 main 225 216 _____P________ -1 -18.9970 39.3952 99 4 62
1960078S20037 1960 14 SI MM NOT_NAMED 1960-03-20 12:00:00 NR -18.8868 39.6168 main 219 211 _____P________ -1 -18.8868 39.6168 99 5 63
1960078S20037 1960 14 SI MM NOT_NAMED 1960-03-20 15:00:00 NR -18.7750 39.8613 main 218 208 _____P________ -1 -18.7750 39.8613 99 5 66
1960078S20037 1960 14 SI MM NOT_NAMED 1960-03-20 18:00:00 NR -18.6676 40.1249 main 217 213 _____P________ -1 -18.6676 40.1249 99 6 68
1960078S20037 1960 14 SI MM NOT_NAMED 1960-03-20 21:00:00 NR -18.5706 40.4041 main 225 223 _____P________ -1 -18.5706 40.4041 99 6 72
1960078S20037 1960 14 SI MM NOT_NAMED 1960-03-21 00:00:00 NR -18.4897 40.6953 main 238 238 _____P________ -1 -18.4897 40.6953 99 6 76
1960078S20037 1960 14 SI MM NOT_NAMED 1960-03-21 03:00:00 NR -18.4308 40.9951 main 247 247 _____P________ -1 -18.4308 40.9951 99 6 81
1960078S20037 1960 14 SI MM NOT_NAMED 1960-03-21 06:00:00 NR -18.4000 41.3000 reunion main 265 263 _____O________ -1 -18.4000 41.3000 99 9.90000 5 85
1960078S20037 1960 14 SI MM NOT_NAMED 1960-03-21 09:00:00 NR -18.3864 41.5528 main 253 232 _____P________ -1 -18.3864 41.5528 99 5 90
1960078S20037 1960 14 SI MM NOT_NAMED 1960-03-21 12:00:00 NR -18.3970 41.8091 main 232 200 _____P________ -1 -18.3970 41.8091 99 5 95
1960078S20037 1960 14 SI MM NOT_NAMED 1960-03-21 15:00:00 NR -18.4324 42.0756 main 200 189 _____P________ -1 -18.4324 42.0756 99 4 86
1960078S20037 1960 14 SI MM NOT_NAMED 1960-03-21 18:00:00 TS -18.3675 42.2053 main 189 179 O____P___OO___ jtwc_sh SH201960 -18.2000 42.0000 -1 -18.4931 42.3592 99 -18.2000 42.0000 TC -18.2000 42.0000 7 2 100
1960078S20037 1960 14 SI MM NOT_NAMED 1960-03-21 21:00:00 TS -18.4678 42.2849 main 179 170 P____P___PP___ SH201960 -18.4025 42.0125 -1 -18.5797 42.6665 99 -18.4025 42.0125 TC -18.3742 42.0666 7 3 144
1960078S20037 1960 14 SI MM NOT_NAMED 1960-03-22 00:00:00 TS -18.6190 42.3959 main 170 154 O____P___OP___ jtwc_sh SH201960 -18.6000 42.1000 -1 -18.6928 43.0045 99 -18.6000 42.1000 TC -18.5588 42.1765 7 4 138
1960078S20037 1960 14 SI MM NOT_NAMED 1960-03-22 03:00:00 TS -18.7954 42.6008 main 154 124 P____P___PP___ SH201960 -18.7923 42.3252 -1 -18.8328 43.3800 99 -18.7923 42.3252 TC -18.7640 42.3730 7 7 125
1960078S20037 1960 14 SI MM NOT_NAMED 1960-03-22 06:00:00 TS -19.0000 42.9750 reunion main 124 84 O____O___OO___ jtwc_sh SH201960 -19.0000 42.7000 -1 -19.0000 43.8000 99 9.90000 -19.0000 42.7000 TC 25 -19.0000 42.7000 7 9 118
1960078S20037 1960 14 SI MM NOT_NAMED 1960-03-22 09:00:00 TS -19.2346 43.4698 main 74 46 P____P___PP___ SH201960 -19.2425 43.2050 -1 -19.1841 44.2862 99 -19.2425 43.2050 TC 25 -19.2693 43.1830 7 11 116
1960078S20037 1960 14 SI MM NOT_NAMED 1960-03-22 12:00:00 TS -19.4861 44.0481 main 46 0 O____P___OP___ jtwc_sh SH201960 -19.5000 43.8000 -1 -19.3974 44.8193 99 -19.5000 43.8000 TC 25 -19.5468 43.7730 7 12 115
1960078S20037 1960 14 SI MM NOT_NAMED 1960-03-22 15:00:00 TS -19.7489 44.6629 main 0 0 P____P___PP___ SH201960 -19.7802 44.4297 -1 -19.6346 45.3905 99 -19.7802 44.4297 TC 30 -19.8006 44.4017 7 12 113
1960078S20037 1960 14 SI MM NOT_NAMED 1960-03-22 18:00:00 TS -19.9726 45.2477 main 0 0 O____P___OO___ jtwc_sh SH201960 -20.0000 45.0000 -1 -19.8904 45.9908 99 -20.0000 45.0000 TC 35 -20.0000 45.0000 2 10 110
1960078S20037 1960 14 SI MM NOT_NAMED 1960-03-22 21:00:00 TS -20.0999 45.6868 main 0 0 P____P___PP___ SH201960 -20.0795 45.3654 -1 -20.1597 46.6111 99 -20.0795 45.3654 TC 35 -20.0808 45.4052 2 8 105
1960078S20037 1960 14 SI MM NOT_NAMED 1960-03-23 00:00:00 TS -20.1873 46.1051 main 0 0 O____P___OP___ jtwc_sh SH201960 -20.1000 45.7000 -1 -20.4377 47.2423 99 -20.1000 45.7000 TC 35 -20.1116 45.7780 2 9 102
1960078S20037 1960 14 SI MM NOT_NAMED 1960-03-23 03:00:00 TS -20.2813 46.5818 main 0 0 P____P___PP___ SH201960 -20.1346 46.1328 -1 -20.7193 47.8750 99 -20.1346 46.1328 TC 35 -20.1367 46.1866 2 10 102
1960078S20037 1960 14 SI MM NOT_NAMED 1960-03-23 06:00:00 TS -20.4000 47.1500 reunion main 0 0 O____O___OO___ jtwc_sh SH201960 -20.2000 46.7000 -1 -21.0000 48.5000 99 9.90000 -20.2000 46.7000 TC 35 -20.2000 46.7000 2 12 103
1960078S20037 1960 14 SI MM NOT_NAMED 1960-03-23 09:00:00 TS -20.5523 47.8468 main 0 0 P____P___PP___ SH201960 -20.3201 47.4477 -1 -21.2311 49.0735 99 -20.3201 47.4477 TC 35 -20.3378 47.4182 2 14 104
1960078S20037 1960 14 SI MM NOT_NAMED 1960-03-23 12:00:00 TS -20.7452 48.6222 main 15 15 O____P___OP___ jtwc_sh SH201960 -20.5000 48.3000 -1 -21.4617 49.6434 99 -20.5000 48.3000 TC 35 -20.5192 48.2454 2 15 106
1960078S20037 1960 14 SI MM NOT_NAMED 1960-03-23 15:00:00 TS -20.9692 49.4055 main 103 103 P____P___PP___ SH201960 -20.7197 49.1428 -1 -21.6965 50.2117 99 -20.7197 49.1428 TC 35 -20.7408 49.1250 2 15 108
1960078S20037 1960 14 SI MM NOT_NAMED 1960-03-23 18:00:00 TS -21.2351 50.1950 main 188 188 O____P___OO___ jtwc_sh SH201960 -21.0000 50.0000 -1 -21.9403 50.7802 99 -21.0000 50.0000 TC 35 -21.0000 50.0000 2 16 111
1960078S20037 1960 14 SI MM NOT_NAMED 1960-03-23 21:00:00 TS -21.5460 50.9832 main 275 275 P____P___PP___ SH201960 -21.3424 50.8723 -1 -22.1978 51.3510 99 -21.3424 50.8723 TC 35 -21.3012 50.8369 2 16 114
1960078S20037 1960 14 SI MM NOT_NAMED 1960-03-24 00:00:00 TS -21.8773 51.7449 main 355 314 O____P___OP___ jtwc_sh SH201960 -21.7000 51.7000 -1 -22.4739 51.9264 99 -21.7000 51.7000 TC 35 -21.6353 51.6533 2 15 115
1960078S20037 1960 14 SI MM NOT_NAMED 1960-03-24 03:00:00 TS -22.1948 52.4581 main 304 263 P____P___PP___ SH201960 -22.0147 52.4527 -1 -22.7730 52.5086 99 -22.0147 52.4527 TC 35 -21.9766 52.4182 2 14 116
1960078S20037 1960 14 SI MM NOT_NAMED 1960-03-24 06:00:00 TS -22.5000 53.1000 reunion main 263 234 O____O___OO___ jtwc_sh SH201960 -22.3000 53.1000 -1 -23.1000 53.1000 99 9.90000 -22.3000 53.1000 TC 35 -22.3000 53.1000 2 13 118
1960078S20037 1960 14 SI MM NOT_NAMED 1960-03-24 09:00:00 TS -22.8017 53.6829 main 235 226 P____P___PP___ SH201960 -22.5571 53.6379 -1 -23.5188 53.7889 99 -22.5571 53.6379 TC 35 -22.5736 53.6668 2 12 120
1960078S20037 1960 14 SI MM NOT_NAMED 1960-03-24 12:00:00 TS -23.0998 54.2121 main 230 226 O____P___OP___ jtwc_sh SH201960 -22.8000 54.1000 -1 -23.9717 54.4992 99 -22.8000 54.1000 TC 35 -22.8276 54.1493 2 11 122
1960078S20037 1960 14 SI MM NOT_NAMED 1960-03-24 15:00:00 TS -23.4061 54.7278 main 241 238 P____P___PP___ SH201960 -23.0573 54.5576 -1 -24.4421 55.2136 99 -23.0573 54.5576 TC 35 -23.0678 54.5821 2 11 123
1960078S20037 1960 14 SI MM NOT_NAMED 1960-03-24 18:00:00 TS -23.7034 55.2286 main 260 258 O____P___OO___ jtwc_sh SH201960 -23.3000 55.0000 -1 -24.9138 55.9144 99 -23.3000 55.0000 TC 35 -23.3000 55.0000 2 11 121
1960078S20037 1960 14 SI MM NOT_NAMED 1960-03-24 21:00:00 TS -23.9715 55.7364 main 290 290 P____P___PP___ SH201960 -23.4999 55.4503 -1 -25.3709 56.5828 99 -23.4999 55.4503 TC 30 -23.5155 55.4622 2 11 120
1960078S20037 1960 14 SI MM NOT_NAMED 1960-03-25 00:00:00 TS -24.2312 56.2290 main 318 318 O____P___OP___ jtwc_sh SH201960 -23.7000 55.9000 -1 -25.7978 57.1998 99 -23.7000 55.9000 TC 25 -23.7270 55.9164 2 10 121
1960078S20037 1960 14 SI MM NOT_NAMED 1960-03-25 03:00:00 TS -24.4997 56.7021 main 364 364 P____P___PP___ SH201960 -23.9349 56.3502 -1 -26.1792 57.7456 99 -23.9349 56.3502 TC 25 -23.9499 56.3623 2 10 123
1960078S20037 1960 14 SI MM NOT_NAMED 1960-03-25 06:00:00 TS -24.7750 57.1500 reunion main 413 413 O____O___OO___ jtwc_sh SH201960 -24.2000 56.8000 -1 -26.5000 58.2000 99 9.90000 -24.2000 56.8000 TC 25 -24.2000 56.8000 7 10 125
1960078S20037 1960 14 SI MM NOT_NAMED 1960-03-25 09:00:00 TS -25.0529 57.5780 main 461 461 P____P___PP___ SH201960 -24.4849 57.2577 -1 -26.7496 58.5483 99 -24.4849 57.2577 TC 25 -24.4920 57.2484 7 9 127
1960078S20037 1960 14 SI MM NOT_NAMED 1960-03-25 12:00:00 TS -25.3365 57.9714 main 499 499 O____P___OP___ jtwc_sh SH201960 -24.8000 57.7000 -1 -26.9338 58.7980 99 -24.8000 57.7000 TC 25 -24.8124 57.6875 7 9 130
1960078S20037 1960 14 SI MM NOT_NAMED 1960-03-25 15:00:00 TS -25.6247 58.3289 main 543 543 P____P___PP___ SH201960 -25.1424 58.1226 -1 -27.0624 58.9626 99 -25.1424 58.1226 TC 25 -25.1515 58.1079 7 8 134
1960078S20037 1960 14 SI MM NOT_NAMED 1960-03-25 18:00:00 TS -25.9112 58.6390 main 587 587 O____P___OO___ jtwc_sh SH201960 -25.5000 58.5000 -1 -27.1450 59.0559 99 -25.5000 58.5000 TC 25 -25.5000 58.5000 7 7 138
1960078S20037 1960 14 SI MM NOT_NAMED 1960-03-25 21:00:00 TS -26.1726 58.8722 main 631 631 P____P___PP___ SH201960 -25.8498 58.8079 -1 -27.1909 59.0921 99 -25.8498 58.8079 TC 25 -25.8000 58.7808 7 6 140
1960078S20037 1960 14 SI MM NOT_NAMED 1960-03-26 00:00:00 TS -26.3789 59.0822 main 661 661 O____P___OP___ jtwc_sh SH201960 -26.2000 59.1000 -1 -27.2092 59.0853 99 -26.2000 59.1000 TC 25 -26.1140 59.0443 7 6 137
1960078S20037 1960 14 SI MM NOT_NAMED 1960-03-26 03:00:00 TS -26.6041 59.3293 main 690 690 P____P___PP___ SH201960 -26.5194 59.3837 -1 -27.2092 59.0498 99 -26.5194 59.3837 TC 25 -26.4712 59.3603 7 8 133
1960078S20037 1960 14 SI MM NOT_NAMED 1960-03-26 06:00:00 TS -26.9231 59.7385 reunion main 740 740 O____O___OO___ jtwc_sh SH201960 -26.9000 59.8000 -1 -27.2000 59.0000 99 9.90000 -26.9000 59.8000 TC 25 -26.9000 59.8000 7 13 129
1960078S20037 1960 14 SI MM NOT_NAMED 1960-03-26 09:00:00 TS -27.4217 60.4766 main 821 821 P________PP___ SH201960 -27.4052 60.4752 -1 99 -27.4052 60.4752 TC 25 -27.4549 60.4795 7 18 129
1960078S20037 1960 14 SI MM NOT_NAMED 1960-03-26 12:00:00 TS -28.0245 61.2964 main 913 913 O________OP___ jtwc_sh SH201960 -28.0000 61.3000 -1 99 -28.0000 61.3000 TC 25 -28.0735 61.2892 7 19 130
1960078S20037 1960 14 SI MM NOT_NAMED 1960-03-26 15:00:00 TS -28.6734 62.1563 main 1022 1022 P________PP___ SH201960 -28.6576 62.1570 -1 99 -28.6576 62.1570 TC 25 -28.7049 62.1550 7 20 130
1960078S20037 1960 14 SI MM NOT_NAMED 1960-03-26 18:00:00 TS -29.3000 63.0000 main 1118 1118 O________OO___ jtwc_sh SH201960 -29.3000 63.0000 -1 99 -29.3000 63.0000 TC 25 -29.3000 63.0000 7 18 130
1960078S20037 1960 14 SI MM NOT_NAMED 1960-03-26 21:00:00 TS -29.8322 63.7414 main 1201 1201 P________PP___ SH201960 -29.8368 63.7311 -1 99 -29.8368 63.7311 TC 25 -29.8230 63.7620 7 16 129
1960078S20037 1960 14 SI MM NOT_NAMED 1960-03-27 00:00:00 TS -30.2946 64.4162 main 1284 1284 O________OP___ jtwc_sh SH201960 -30.3000 64.4000 -1 99 -30.3000 64.4000 TC 25 -30.2839 64.4486 7 14 128
1960078S20037 1960 14 SI MM NOT_NAMED 1960-03-27 03:00:00 TS -30.7098 65.0628 main 1358 1358 P________PP___ SH201960 -30.7133 65.0513 -1 99 -30.7133 65.0513 TC 25 -30.7029 65.0856 7 14 126
1960078S20037 1960 14 SI MM NOT_NAMED 1960-03-27 06:00:00 TS -31.1000 65.7000 main 1427 O________OO___ jtwc_sh SH201960 -31.1000 65.7000 -1 -31.1000 65.7000 TC 25 -31.1000 65.7000 7 13 126

About IBTrACS Database

This database is a web-friendly format of International Best Track Archive for Climate Stewardship (IBTrACS), a global best track data archive curated by NOAA dating back to 1842.

Updated: 2021-12-03